sensor_id;sensor_type;location;lat;lon;timestamp;P1;durP1;ratioP1;P2;durP2;ratioP2
11791;SDS011;5953;52.372;9.918;2022-11-20T00:00:54;16.33;;;10.17;;
11791;SDS011;5953;52.372;9.918;2022-11-20T00:03:22;13.70;;;8.57;;
11791;SDS011;5953;52.372;9.918;2022-11-20T00:05:50;13.23;;;8.90;;
11791;SDS011;5953;52.372;9.918;2022-11-20T00:08:18;15.97;;;10.20;;
11791;SDS011;5953;52.372;9.918;2022-11-20T00:10:46;17.50;;;12.40;;
11791;SDS011;5953;52.372;9.918;2022-11-20T00:13:15;17.77;;;11.83;;
11791;SDS011;5953;52.372;9.918;2022-11-20T00:15:43;18.03;;;11.27;;
11791;SDS011;5953;52.372;9.918;2022-11-20T00:18:11;16.00;;;10.37;;
11791;SDS011;5953;52.372;9.918;2022-11-20T00:20:38;14.90;;;9.37;;
11791;SDS011;5953;52.372;9.918;2022-11-20T00:23:06;15.43;;;10.13;;
11791;SDS011;5953;52.372;9.918;2022-11-20T00:25:34;13.03;;;9.77;;
11791;SDS011;5953;52.372;9.918;2022-11-20T00:28:02;13.57;;;9.50;;
11791;SDS011;5953;52.372;9.918;2022-11-20T00:30:31;11.40;;;8.43;;
11791;SDS011;5953;52.372;9.918;2022-11-20T00:32:59;12.83;;;9.13;;
11791;SDS011;5953;52.372;9.918;2022-11-20T00:35:27;12.93;;;8.23;;
11791;SDS011;5953;52.372;9.918;2022-11-20T00:37:54;13.70;;;8.60;;
11791;SDS011;5953;52.372;9.918;2022-11-20T00:40:22;12.83;;;8.87;;
11791;SDS011;5953;52.372;9.918;2022-11-20T00:42:50;12.63;;;9.03;;
11791;SDS011;5953;52.372;9.918;2022-11-20T00:45:18;13.17;;;8.97;;
11791;SDS011;5953;52.372;9.918;2022-11-20T00:47:47;13.13;;;8.57;;
11791;SDS011;5953;52.372;9.918;2022-11-20T00:50:15;11.47;;;8.13;;
11791;SDS011;5953;52.372;9.918;2022-11-20T00:52:43;11.13;;;8.13;;
11791;SDS011;5953;52.372;9.918;2022-11-20T00:55:11;13.27;;;8.57;;
11791;SDS011;5953;52.372;9.918;2022-11-20T00:57:38;14.73;;;9.63;;
11791;SDS011;5953;52.372;9.918;2022-11-20T01:00:07;15.43;;;9.23;;
11791;SDS011;5953;52.372;9.918;2022-11-20T01:02:35;11.97;;;8.77;;
11791;SDS011;5953;52.372;9.918;2022-11-20T01:05:05;11.30;;;8.70;;
11791;SDS011;5953;52.372;9.918;2022-11-20T01:07:32;12.97;;;8.83;;
11791;SDS011;5953;52.372;9.918;2022-11-20T01:10:00;12.37;;;8.30;;
11791;SDS011;5953;52.372;9.918;2022-11-20T01:12:28;13.03;;;8.73;;
11791;SDS011;5953;52.372;9.918;2022-11-20T01:14:56;13.53;;;8.40;;
11791;SDS011;5953;52.372;9.918;2022-11-20T01:17:24;15.80;;;8.97;;
11791;SDS011;5953;52.372;9.918;2022-11-20T01:19:52;12.73;;;8.80;;
11791;SDS011;5953;52.372;9.918;2022-11-20T01:22:21;17.67;;;8.80;;
11791;SDS011;5953;52.372;9.918;2022-11-20T01:24:49;13.20;;;7.90;;
11791;SDS011;5953;52.372;9.918;2022-11-20T01:27:16;12.60;;;8.30;;
11791;SDS011;5953;52.372;9.918;2022-11-20T01:29:44;11.87;;;8.23;;
11791;SDS011;5953;52.372;9.918;2022-11-20T01:32:12;12.00;;;7.40;;
11791;SDS011;5953;52.372;9.918;2022-11-20T01:34:40;11.67;;;7.27;;
11791;SDS011;5953;52.372;9.918;2022-11-20T01:37:07;10.77;;;7.20;;
11791;SDS011;5953;52.372;9.918;2022-11-20T01:39:37;11.77;;;8.10;;
11791;SDS011;5953;52.372;9.918;2022-11-20T01:42:04;11.90;;;7.57;;
11791;SDS011;5953;52.372;9.918;2022-11-20T01:44:51;17.33;;;8.33;;
11791;SDS011;5953;52.372;9.918;2022-11-20T01:47:22;11.83;;;8.07;;
11791;SDS011;5953;52.372;9.918;2022-11-20T01:49:55;10.17;;;7.07;;
11791;SDS011;5953;52.372;9.918;2022-11-20T01:52:27;13.37;;;8.53;;
11791;SDS011;5953;52.372;9.918;2022-11-20T01:55:00;11.90;;;8.47;;
11791;SDS011;5953;52.372;9.918;2022-11-20T01:57:32;11.17;;;8.00;;
11791;SDS011;5953;52.372;9.918;2022-11-20T02:00:03;11.60;;;7.43;;
11791;SDS011;5953;52.372;9.918;2022-11-20T02:02:33;11.47;;;7.43;;
11791;SDS011;5953;52.372;9.918;2022-11-20T02:05:03;10.40;;;7.33;;
11791;SDS011;5953;52.372;9.918;2022-11-20T02:07:36;11.53;;;7.60;;
11791;SDS011;5953;52.372;9.918;2022-11-20T02:10:07;10.40;;;7.57;;
11791;SDS011;5953;52.372;9.918;2022-11-20T02:12:34;9.53;;;7.23;;
11791;SDS011;5953;52.372;9.918;2022-11-20T02:15:20;9.43;;;7.10;;
11791;SDS011;5953;52.372;9.918;2022-11-20T02:17:55;10.93;;;7.50;;
11791;SDS011;5953;52.372;9.918;2022-11-20T02:20:23;11.37;;;7.53;;
11791;SDS011;5953;52.372;9.918;2022-11-20T02:22:53;12.57;;;8.30;;
11791;SDS011;5953;52.372;9.918;2022-11-20T02:25:25;11.27;;;7.70;;
11791;SDS011;5953;52.372;9.918;2022-11-20T02:27:55;10.93;;;7.93;;
11791;SDS011;5953;52.372;9.918;2022-11-20T02:30:23;11.83;;;7.57;;
11791;SDS011;5953;52.372;9.918;2022-11-20T02:32:51;9.83;;;7.83;;
11791;SDS011;5953;52.372;9.918;2022-11-20T02:38:10;9.93;;;6.90;;
11791;SDS011;5953;52.372;9.918;2022-11-20T02:40:39;13.90;;;7.57;;
11791;SDS011;5953;52.372;9.918;2022-11-20T02:43:08;12.30;;;8.00;;
11791;SDS011;5953;52.372;9.918;2022-11-20T02:45:36;10.33;;;7.50;;
11791;SDS011;5953;52.372;9.918;2022-11-20T02:48:05;9.83;;;6.93;;
11791;SDS011;5953;52.372;9.918;2022-11-20T02:50:35;9.87;;;7.27;;
11791;SDS011;5953;52.372;9.918;2022-11-20T02:53:04;11.47;;;7.93;;
11791;SDS011;5953;52.372;9.918;2022-11-20T02:55:32;11.97;;;8.10;;
11791;SDS011;5953;52.372;9.918;2022-11-20T02:58:01;11.17;;;7.67;;
11791;SDS011;5953;52.372;9.918;2022-11-20T03:00:29;10.03;;;7.40;;
11791;SDS011;5953;52.372;9.918;2022-11-20T03:02:58;10.77;;;7.17;;
11791;SDS011;5953;52.372;9.918;2022-11-20T03:05:25;12.00;;;7.43;;
11791;SDS011;5953;52.372;9.918;2022-11-20T03:07:53;10.53;;;7.20;;
11791;SDS011;5953;52.372;9.918;2022-11-20T03:10:21;11.13;;;7.57;;
11791;SDS011;5953;52.372;9.918;2022-11-20T03:12:52;10.60;;;8.37;;
11791;SDS011;5953;52.372;9.918;2022-11-20T03:15:21;13.57;;;8.13;;
11791;SDS011;5953;52.372;9.918;2022-11-20T03:17:52;12.57;;;7.50;;
11791;SDS011;5953;52.372;9.918;2022-11-20T03:20:20;13.30;;;8.03;;
11791;SDS011;5953;52.372;9.918;2022-11-20T03:22:49;9.93;;;7.37;;
11791;SDS011;5953;52.372;9.918;2022-11-20T03:25:16;12.03;;;8.03;;
11791;SDS011;5953;52.372;9.918;2022-11-20T03:27:44;11.47;;;8.20;;
11791;SDS011;5953;52.372;9.918;2022-11-20T03:30:12;13.03;;;8.37;;
11791;SDS011;5953;52.372;9.918;2022-11-20T03:32:42;12.07;;;8.53;;
11791;SDS011;5953;52.372;9.918;2022-11-20T03:35:10;11.60;;;8.03;;
11791;SDS011;5953;52.372;9.918;2022-11-20T03:37:38;10.47;;;7.90;;
11791;SDS011;5953;52.372;9.918;2022-11-20T03:40:06;10.70;;;8.43;;
11791;SDS011;5953;52.372;9.918;2022-11-20T03:42:34;15.60;;;8.03;;
11791;SDS011;5953;52.372;9.918;2022-11-20T03:45:14;11.67;;;8.07;;
11791;SDS011;5953;52.372;9.918;2022-11-20T03:47:44;11.13;;;7.80;;
11791;SDS011;5953;52.372;9.918;2022-11-20T03:50:13;15.03;;;8.13;;
11791;SDS011;5953;52.372;9.918;2022-11-20T03:52:41;10.93;;;8.20;;
11791;SDS011;5953;52.372;9.918;2022-11-20T03:55:09;13.77;;;8.90;;
11791;SDS011;5953;52.372;9.918;2022-11-20T03:57:37;11.60;;;8.27;;
11791;SDS011;5953;52.372;9.918;2022-11-20T04:00:05;13.07;;;8.23;;
11791;SDS011;5953;52.372;9.918;2022-11-20T04:02:33;10.77;;;7.90;;
11791;SDS011;5953;52.372;9.918;2022-11-20T04:05:03;11.53;;;7.83;;
11791;SDS011;5953;52.372;9.918;2022-11-20T04:07:33;10.93;;;7.90;;
11791;SDS011;5953;52.372;9.918;2022-11-20T04:10:01;9.93;;;6.87;;
11791;SDS011;5953;52.372;9.918;2022-11-20T04:12:31;9.53;;;7.60;;
11791;SDS011;5953;52.372;9.918;2022-11-20T04:14:59;11.90;;;8.00;;
11791;SDS011;5953;52.372;9.918;2022-11-20T04:17:27;10.63;;;7.60;;
11791;SDS011;5953;52.372;9.918;2022-11-20T04:19:55;11.43;;;7.53;;
11791;SDS011;5953;52.372;9.918;2022-11-20T04:22:24;10.47;;;7.73;;
11791;SDS011;5953;52.372;9.918;2022-11-20T04:24:52;13.23;;;7.57;;
11791;SDS011;5953;52.372;9.918;2022-11-20T04:27:19;10.50;;;7.43;;
11791;SDS011;5953;52.372;9.918;2022-11-20T04:29:47;10.80;;;7.53;;
11791;SDS011;5953;52.372;9.918;2022-11-20T04:32:17;9.00;;;7.13;;
11791;SDS011;5953;52.372;9.918;2022-11-20T04:34:44;10.00;;;6.60;;
11791;SDS011;5953;52.372;9.918;2022-11-20T04:37:12;9.27;;;6.93;;
11791;SDS011;5953;52.372;9.918;2022-11-20T04:39:41;9.30;;;6.83;;
11791;SDS011;5953;52.372;9.918;2022-11-20T04:42:09;9.47;;;7.27;;
11791;SDS011;5953;52.372;9.918;2022-11-20T04:44:56;10.17;;;7.20;;
11791;SDS011;5953;52.372;9.918;2022-11-20T04:47:24;11.57;;;7.37;;
11791;SDS011;5953;52.372;9.918;2022-11-20T04:49:52;10.77;;;7.60;;
11791;SDS011;5953;52.372;9.918;2022-11-20T04:52:20;12.13;;;7.60;;
11791;SDS011;5953;52.372;9.918;2022-11-20T04:54:49;9.80;;;7.00;;
11791;SDS011;5953;52.372;9.918;2022-11-20T04:57:19;11.23;;;7.00;;
11791;SDS011;5953;52.372;9.918;2022-11-20T04:59:46;12.23;;;7.50;;
11791;SDS011;5953;52.372;9.918;2022-11-20T05:02:14;10.60;;;7.00;;
11791;SDS011;5953;52.372;9.918;2022-11-20T05:04:42;11.47;;;7.77;;
11791;SDS011;5953;52.372;9.918;2022-11-20T05:07:10;13.30;;;8.17;;
11791;SDS011;5953;52.372;9.918;2022-11-20T05:09:38;11.97;;;8.13;;
11791;SDS011;5953;52.372;9.918;2022-11-20T05:12:08;12.00;;;7.80;;
11791;SDS011;5953;52.372;9.918;2022-11-20T05:14:36;12.57;;;6.73;;
11791;SDS011;5953;52.372;9.918;2022-11-20T05:17:04;11.93;;;7.97;;
11791;SDS011;5953;52.372;9.918;2022-11-20T05:19:32;10.07;;;7.80;;
11791;SDS011;5953;52.372;9.918;2022-11-20T05:22:00;10.60;;;7.60;;
11791;SDS011;5953;52.372;9.918;2022-11-20T05:24:28;9.60;;;7.20;;
11791;SDS011;5953;52.372;9.918;2022-11-20T05:26:55;10.03;;;7.47;;
11791;SDS011;5953;52.372;9.918;2022-11-20T05:29:24;9.40;;;7.07;;
11791;SDS011;5953;52.372;9.918;2022-11-20T05:31:52;10.60;;;7.57;;
11791;SDS011;5953;52.372;9.918;2022-11-20T05:34:20;12.17;;;7.37;;
11791;SDS011;5953;52.372;9.918;2022-11-20T05:36:48;12.17;;;7.00;;
11791;SDS011;5953;52.372;9.918;2022-11-20T05:39:15;10.90;;;7.87;;
11791;SDS011;5953;52.372;9.918;2022-11-20T05:41:43;9.07;;;6.90;;
11791;SDS011;5953;52.372;9.918;2022-11-20T05:44:11;8.83;;;6.70;;
11791;SDS011;5953;52.372;9.918;2022-11-20T05:46:40;10.33;;;6.60;;
11791;SDS011;5953;52.372;9.918;2022-11-20T05:49:08;9.97;;;7.43;;
11791;SDS011;5953;52.372;9.918;2022-11-20T05:51:36;12.87;;;7.50;;
11791;SDS011;5953;52.372;9.918;2022-11-20T05:54:04;10.90;;;6.90;;
11791;SDS011;5953;52.372;9.918;2022-11-20T05:56:32;10.50;;;7.73;;
11791;SDS011;5953;52.372;9.918;2022-11-20T05:58:59;11.37;;;7.20;;
11791;SDS011;5953;52.372;9.918;2022-11-20T06:01:27;10.60;;;6.80;;
11791;SDS011;5953;52.372;9.918;2022-11-20T06:03:56;10.90;;;6.90;;
11791;SDS011;5953;52.372;9.918;2022-11-20T06:06:24;10.63;;;7.30;;
11791;SDS011;5953;52.372;9.918;2022-11-20T06:08:52;12.60;;;7.90;;
11791;SDS011;5953;52.372;9.918;2022-11-20T06:11:20;9.30;;;7.00;;
11791;SDS011;5953;52.372;9.918;2022-11-20T06:13:48;9.93;;;7.43;;
11791;SDS011;5953;52.372;9.918;2022-11-20T06:16:16;9.90;;;7.20;;
11791;SDS011;5953;52.372;9.918;2022-11-20T06:18:46;10.03;;;6.83;;
11791;SDS011;5953;52.372;9.918;2022-11-20T06:21:16;11.53;;;7.17;;
11791;SDS011;5953;52.372;9.918;2022-11-20T06:23:44;12.47;;;8.23;;
11791;SDS011;5953;52.372;9.918;2022-11-20T06:26:14;9.57;;;6.80;;
11791;SDS011;5953;52.372;9.918;2022-11-20T06:28:43;10.40;;;7.67;;
11791;SDS011;5953;52.372;9.918;2022-11-20T06:31:12;8.87;;;7.17;;
11791;SDS011;5953;52.372;9.918;2022-11-20T06:33:41;12.53;;;8.33;;
11791;SDS011;5953;52.372;9.918;2022-11-20T06:36:10;10.80;;;7.90;;
11791;SDS011;5953;52.372;9.918;2022-11-20T06:38:40;9.97;;;7.50;;
11791;SDS011;5953;52.372;9.918;2022-11-20T06:41:10;9.53;;;6.80;;
11791;SDS011;5953;52.372;9.918;2022-11-20T06:43:39;12.00;;;8.13;;
11791;SDS011;5953;52.372;9.918;2022-11-20T06:46:08;13.00;;;7.40;;
11791;SDS011;5953;52.372;9.918;2022-11-20T06:48:37;9.60;;;6.90;;
11791;SDS011;5953;52.372;9.918;2022-11-20T06:51:06;8.50;;;6.30;;
11791;SDS011;5953;52.372;9.918;2022-11-20T06:53:35;9.70;;;6.67;;
11791;SDS011;5953;52.372;9.918;2022-11-20T06:56:05;10.10;;;7.37;;
11791;SDS011;5953;52.372;9.918;2022-11-20T06:58:34;11.87;;;7.47;;
11791;SDS011;5953;52.372;9.918;2022-11-20T07:01:03;10.63;;;7.70;;
11791;SDS011;5953;52.372;9.918;2022-11-20T07:03:32;13.57;;;8.47;;
11791;SDS011;5953;52.372;9.918;2022-11-20T07:06:00;9.63;;;6.60;;
11791;SDS011;5953;52.372;9.918;2022-11-20T07:08:29;13.80;;;7.80;;
11791;SDS011;5953;52.372;9.918;2022-11-20T07:10:57;12.50;;;7.07;;
11791;SDS011;5953;52.372;9.918;2022-11-20T07:13:27;9.93;;;6.83;;
11791;SDS011;5953;52.372;9.918;2022-11-20T07:15:58;11.03;;;7.60;;
11791;SDS011;5953;52.372;9.918;2022-11-20T07:18:27;11.30;;;7.37;;
11791;SDS011;5953;52.372;9.918;2022-11-20T07:20:55;10.97;;;7.43;;
11791;SDS011;5953;52.372;9.918;2022-11-20T07:23:23;11.17;;;7.70;;
11791;SDS011;5953;52.372;9.918;2022-11-20T07:25:53;9.93;;;7.63;;
11791;SDS011;5953;52.372;9.918;2022-11-20T07:28:21;11.43;;;8.13;;
11791;SDS011;5953;52.372;9.918;2022-11-20T07:30:51;11.33;;;7.90;;
11791;SDS011;5953;52.372;9.918;2022-11-20T07:33:19;11.50;;;8.23;;
11791;SDS011;5953;52.372;9.918;2022-11-20T07:35:47;11.43;;;7.60;;
11791;SDS011;5953;52.372;9.918;2022-11-20T07:38:15;10.73;;;7.83;;
11791;SDS011;5953;52.372;9.918;2022-11-20T07:40:43;11.17;;;7.80;;
11791;SDS011;5953;52.372;9.918;2022-11-20T07:43:10;10.50;;;7.07;;
11791;SDS011;5953;52.372;9.918;2022-11-20T07:45:38;13.47;;;8.57;;
11791;SDS011;5953;52.372;9.918;2022-11-20T07:48:07;15.83;;;10.03;;
11791;SDS011;5953;52.372;9.918;2022-11-20T07:50:35;15.80;;;10.83;;
11791;SDS011;5953;52.372;9.918;2022-11-20T07:53:03;15.40;;;9.10;;
11791;SDS011;5953;52.372;9.918;2022-11-20T07:55:32;13.87;;;9.40;;
11791;SDS011;5953;52.372;9.918;2022-11-20T07:58:00;13.17;;;8.40;;
11791;SDS011;5953;52.372;9.918;2022-11-20T08:00:27;11.03;;;7.53;;
11791;SDS011;5953;52.372;9.918;2022-11-20T08:02:55;9.00;;;7.13;;
11791;SDS011;5953;52.372;9.918;2022-11-20T08:05:24;11.13;;;7.90;;
11791;SDS011;5953;52.372;9.918;2022-11-20T08:07:52;10.07;;;7.40;;
11791;SDS011;5953;52.372;9.918;2022-11-20T08:10:20;10.27;;;7.83;;
11791;SDS011;5953;52.372;9.918;2022-11-20T08:12:48;13.07;;;8.33;;
11791;SDS011;5953;52.372;9.918;2022-11-20T08:15:35;11.43;;;8.57;;
11791;SDS011;5953;52.372;9.918;2022-11-20T08:18:04;11.83;;;8.80;;
11791;SDS011;5953;52.372;9.918;2022-11-20T08:20:55;11.90;;;7.83;;
11791;SDS011;5953;52.372;9.918;2022-11-20T08:23:23;11.53;;;8.00;;
11791;SDS011;5953;52.372;9.918;2022-11-20T08:25:50;9.87;;;7.43;;
11791;SDS011;5953;52.372;9.918;2022-11-20T08:28:22;13.13;;;8.87;;
11791;SDS011;5953;52.372;9.918;2022-11-20T08:30:50;13.40;;;7.63;;
11791;SDS011;5953;52.372;9.918;2022-11-20T08:33:18;10.20;;;7.73;;
11791;SDS011;5953;52.372;9.918;2022-11-20T08:35:46;11.03;;;8.27;;
11791;SDS011;5953;52.372;9.918;2022-11-20T08:38:15;12.20;;;7.53;;
11791;SDS011;5953;52.372;9.918;2022-11-20T08:40:43;13.37;;;8.90;;
11791;SDS011;5953;52.372;9.918;2022-11-20T08:43:31;12.07;;;8.60;;
11791;SDS011;5953;52.372;9.918;2022-11-20T08:45:59;12.87;;;8.97;;
11791;SDS011;5953;52.372;9.918;2022-11-20T08:48:27;10.30;;;7.50;;
11791;SDS011;5953;52.372;9.918;2022-11-20T08:50:57;11.50;;;7.67;;
11791;SDS011;5953;52.372;9.918;2022-11-20T08:53:26;10.63;;;7.40;;
11791;SDS011;5953;52.372;9.918;2022-11-20T08:55:54;10.63;;;8.30;;
11791;SDS011;5953;52.372;9.918;2022-11-20T08:58:23;9.80;;;7.83;;
11791;SDS011;5953;52.372;9.918;2022-11-20T09:00:51;9.07;;;6.57;;
11791;SDS011;5953;52.372;9.918;2022-11-20T09:03:19;10.53;;;7.40;;
11791;SDS011;5953;52.372;9.918;2022-11-20T09:05:47;12.97;;;7.50;;
11791;SDS011;5953;52.372;9.918;2022-11-20T09:08:15;10.33;;;7.47;;
11791;SDS011;5953;52.372;9.918;2022-11-20T09:10:44;13.60;;;8.97;;
11791;SDS011;5953;52.372;9.918;2022-11-20T09:13:12;14.83;;;9.03;;
11791;SDS011;5953;52.372;9.918;2022-11-20T09:15:40;12.07;;;8.40;;
11791;SDS011;5953;52.372;9.918;2022-11-20T09:18:07;10.60;;;7.13;;
11791;SDS011;5953;52.372;9.918;2022-11-20T09:20:35;10.60;;;7.33;;
11791;SDS011;5953;52.372;9.918;2022-11-20T09:23:03;12.40;;;7.90;;
11791;SDS011;5953;52.372;9.918;2022-11-20T09:25:31;12.40;;;8.33;;
11791;SDS011;5953;52.372;9.918;2022-11-20T09:28:00;11.30;;;8.43;;
11791;SDS011;5953;52.372;9.918;2022-11-20T09:30:35;12.33;;;8.73;;
11791;SDS011;5953;52.372;9.918;2022-11-20T09:35:01;12.10;;;8.47;;
11791;SDS011;5953;52.372;9.918;2022-11-20T09:38:33;11.43;;;7.77;;
11791;SDS011;5953;52.372;9.918;2022-11-20T09:41:11;10.13;;;7.83;;
11791;SDS011;5953;52.372;9.918;2022-11-20T09:44:10;14.17;;;7.50;;
11791;SDS011;5953;52.372;9.918;2022-11-20T09:46:48;10.80;;;8.33;;
11791;SDS011;5953;52.372;9.918;2022-11-20T09:50:07;12.30;;;8.87;;
11791;SDS011;5953;52.372;9.918;2022-11-20T09:57:25;12.00;;;7.37;;
11791;SDS011;5953;52.372;9.918;2022-11-20T10:00:04;13.43;;;8.13;;
11791;SDS011;5953;52.372;9.918;2022-11-20T10:02:37;15.53;;;9.33;;
11791;SDS011;5953;52.372;9.918;2022-11-20T10:05:17;17.10;;;9.17;;
11791;SDS011;5953;52.372;9.918;2022-11-20T10:07:48;14.33;;;8.50;;
11791;SDS011;5953;52.372;9.918;2022-11-20T10:10:33;17.03;;;9.13;;
11791;SDS011;5953;52.372;9.918;2022-11-20T10:13:27;17.97;;;10.07;;
11791;SDS011;5953;52.372;9.918;2022-11-20T10:16:13;13.33;;;9.53;;
11791;SDS011;5953;52.372;9.918;2022-11-20T10:19:13;16.67;;;10.27;;
11791;SDS011;5953;52.372;9.918;2022-11-20T10:22:11;14.10;;;9.73;;
11791;SDS011;5953;52.372;9.918;2022-11-20T10:25:17;14.17;;;9.23;;
11791;SDS011;5953;52.372;9.918;2022-11-20T10:28:09;15.30;;;9.97;;
11791;SDS011;5953;52.372;9.918;2022-11-20T10:30:45;13.60;;;9.13;;
11791;SDS011;5953;52.372;9.918;2022-11-20T10:33:17;16.83;;;10.63;;
11791;SDS011;5953;52.372;9.918;2022-11-20T10:35:49;11.87;;;8.70;;
11791;SDS011;5953;52.372;9.918;2022-11-20T10:38:23;12.20;;;8.30;;
11791;SDS011;5953;52.372;9.918;2022-11-20T10:40:58;13.13;;;9.53;;
11791;SDS011;5953;52.372;9.918;2022-11-20T10:43:42;13.53;;;9.53;;
11791;SDS011;5953;52.372;9.918;2022-11-20T10:46:12;13.00;;;8.67;;
11791;SDS011;5953;52.372;9.918;2022-11-20T10:48:44;13.53;;;9.07;;
11791;SDS011;5953;52.372;9.918;2022-11-20T10:51:16;12.57;;;8.90;;
11791;SDS011;5953;52.372;9.918;2022-11-20T10:53:53;12.63;;;8.97;;
11791;SDS011;5953;52.372;9.918;2022-11-20T10:56:28;13.53;;;8.73;;
11791;SDS011;5953;52.372;9.918;2022-11-20T11:01:55;11.37;;;8.27;;
11791;SDS011;5953;52.372;9.918;2022-11-20T11:04:33;13.40;;;7.83;;
11791;SDS011;5953;52.372;9.918;2022-11-20T11:07:06;12.47;;;7.43;;
11791;SDS011;5953;52.372;9.918;2022-11-20T11:09:39;10.10;;;6.90;;
11791;SDS011;5953;52.372;9.918;2022-11-20T11:12:10;9.10;;;6.83;;
11791;SDS011;5953;52.372;9.918;2022-11-20T11:14:42;10.13;;;6.90;;
11791;SDS011;5953;52.372;9.918;2022-11-20T11:17:25;9.63;;;6.90;;
11791;SDS011;5953;52.372;9.918;2022-11-20T11:22:45;17.93;;;11.13;;
11791;SDS011;5953;52.372;9.918;2022-11-20T11:25:18;9.70;;;6.83;;
11791;SDS011;5953;52.372;9.918;2022-11-20T11:27:48;9.10;;;6.00;;
11791;SDS011;5953;52.372;9.918;2022-11-20T11:30:18;8.70;;;6.43;;
11791;SDS011;5953;52.372;9.918;2022-11-20T11:32:46;8.90;;;6.47;;
11791;SDS011;5953;52.372;9.918;2022-11-20T11:35:20;10.20;;;6.00;;
11791;SDS011;5953;52.372;9.918;2022-11-20T11:37:53;8.77;;;6.27;;
11791;SDS011;5953;52.372;9.918;2022-11-20T11:40:29;10.57;;;5.97;;
11791;SDS011;5953;52.372;9.918;2022-11-20T11:43:01;10.00;;;6.50;;
11791;SDS011;5953;52.372;9.918;2022-11-20T11:45:31;7.93;;;5.30;;
11791;SDS011;5953;52.372;9.918;2022-11-20T11:47:58;8.53;;;6.43;;
11791;SDS011;5953;52.372;9.918;2022-11-20T11:50:31;8.30;;;6.00;;
11791;SDS011;5953;52.372;9.918;2022-11-20T11:53:03;5.80;;;4.40;;
11791;SDS011;5953;52.372;9.918;2022-11-20T11:55:37;6.37;;;4.93;;
11791;SDS011;5953;52.372;9.918;2022-11-20T11:58:10;6.63;;;4.57;;
11791;SDS011;5953;52.372;9.918;2022-11-20T12:00:45;6.50;;;4.73;;
11791;SDS011;5953;52.372;9.918;2022-11-20T12:03:19;6.97;;;4.90;;
11791;SDS011;5953;52.372;9.918;2022-11-20T12:05:55;6.50;;;4.37;;
11791;SDS011;5953;52.372;9.918;2022-11-20T12:08:26;6.03;;;4.40;;
11791;SDS011;5953;52.372;9.918;2022-11-20T12:10:59;5.50;;;4.17;;
11791;SDS011;5953;52.372;9.918;2022-11-20T12:13:40;6.07;;;4.20;;
11791;SDS011;5953;52.372;9.918;2022-11-20T12:16:13;5.90;;;4.27;;
11791;SDS011;5953;52.372;9.918;2022-11-20T12:18:42;5.70;;;4.27;;
11791;SDS011;5953;52.372;9.918;2022-11-20T12:21:17;7.90;;;4.80;;
11791;SDS011;5953;52.372;9.918;2022-11-20T12:26:45;5.90;;;4.60;;
11791;SDS011;5953;52.372;9.918;2022-11-20T12:29:23;6.23;;;4.90;;
11791;SDS011;5953;52.372;9.918;2022-11-20T12:32:03;8.03;;;5.67;;
11791;SDS011;5953;52.372;9.918;2022-11-20T12:34:51;8.13;;;5.77;;
11791;SDS011;5953;52.372;9.918;2022-11-20T12:37:30;8.50;;;6.53;;
11791;SDS011;5953;52.372;9.918;2022-11-20T12:40:11;6.43;;;5.47;;
11791;SDS011;5953;52.372;9.918;2022-11-20T12:42:54;8.90;;;6.77;;
11791;SDS011;5953;52.372;9.918;2022-11-20T12:45:54;11.57;;;7.63;;
11791;SDS011;5953;52.372;9.918;2022-11-20T12:51:50;10.77;;;8.43;;
11791;SDS011;5953;52.372;9.918;2022-11-20T12:54:48;8.90;;;5.67;;
11791;SDS011;5953;52.372;9.918;2022-11-20T12:57:33;8.80;;;5.80;;
11791;SDS011;5953;52.372;9.918;2022-11-20T13:00:10;7.43;;;5.50;;
11791;SDS011;5953;52.372;9.918;2022-11-20T13:02:47;8.57;;;6.23;;
11791;SDS011;5953;52.372;9.918;2022-11-20T13:05:40;9.60;;;6.83;;
11791;SDS011;5953;52.372;9.918;2022-11-20T13:08:15;8.20;;;6.67;;
11791;SDS011;5953;52.372;9.918;2022-11-20T13:10:51;11.47;;;6.47;;
11791;SDS011;5953;52.372;9.918;2022-11-20T13:13:26;10.10;;;6.87;;
11791;SDS011;5953;52.372;9.918;2022-11-20T13:16:02;10.60;;;7.33;;
11791;SDS011;5953;52.372;9.918;2022-11-20T13:18:39;8.03;;;6.30;;
11791;SDS011;5953;52.372;9.918;2022-11-20T13:21:14;10.43;;;7.50;;
11791;SDS011;5953;52.372;9.918;2022-11-20T13:23:43;9.00;;;6.90;;
11791;SDS011;5953;52.372;9.918;2022-11-20T13:26:16;9.67;;;7.20;;
11791;SDS011;5953;52.372;9.918;2022-11-20T13:28:47;10.60;;;6.80;;
11791;SDS011;5953;52.372;9.918;2022-11-20T13:31:30;12.77;;;7.00;;
11791;SDS011;5953;52.372;9.918;2022-11-20T13:34:00;13.03;;;8.43;;
11791;SDS011;5953;52.372;9.918;2022-11-20T13:36:30;16.83;;;9.73;;
11791;SDS011;5953;52.372;9.918;2022-11-20T13:38:58;14.07;;;8.40;;
11791;SDS011;5953;52.372;9.918;2022-11-20T13:41:28;11.17;;;7.23;;
11791;SDS011;5953;52.372;9.918;2022-11-20T13:44:05;9.47;;;7.17;;
11791;SDS011;5953;52.372;9.918;2022-11-20T13:46:38;14.60;;;7.40;;
11791;SDS011;5953;52.372;9.918;2022-11-20T13:49:10;10.97;;;6.47;;
11791;SDS011;5953;52.372;9.918;2022-11-20T13:51:44;12.10;;;7.90;;
11791;SDS011;5953;52.372;9.918;2022-11-20T13:54:19;10.47;;;7.43;;
11791;SDS011;5953;52.372;9.918;2022-11-20T13:57:30;11.67;;;7.93;;
11791;SDS011;5953;52.372;9.918;2022-11-20T14:00:11;11.10;;;7.87;;
11791;SDS011;5953;52.372;9.918;2022-11-20T14:02:41;9.60;;;7.70;;
11791;SDS011;5953;52.372;9.918;2022-11-20T14:05:15;8.03;;;7.17;;
11791;SDS011;5953;52.372;9.918;2022-11-20T14:07:47;9.63;;;7.70;;
11791;SDS011;5953;52.372;9.918;2022-11-20T14:10:19;11.07;;;6.60;;
11791;SDS011;5953;52.372;9.918;2022-11-20T14:12:56;10.80;;;7.30;;
11791;SDS011;5953;52.372;9.918;2022-11-20T14:15:25;11.10;;;8.10;;
11791;SDS011;5953;52.372;9.918;2022-11-20T14:17:54;12.07;;;7.93;;
11791;SDS011;5953;52.372;9.918;2022-11-20T14:20:23;9.77;;;7.07;;
11791;SDS011;5953;52.372;9.918;2022-11-20T14:22:53;11.83;;;8.00;;
11791;SDS011;5953;52.372;9.918;2022-11-20T14:25:22;13.57;;;8.53;;
11791;SDS011;5953;52.372;9.918;2022-11-20T14:27:53;12.93;;;8.87;;
11791;SDS011;5953;52.372;9.918;2022-11-20T14:30:25;10.80;;;8.77;;
11791;SDS011;5953;52.372;9.918;2022-11-20T14:32:55;12.07;;;8.53;;
11791;SDS011;5953;52.372;9.918;2022-11-20T14:35:29;12.77;;;7.67;;
11791;SDS011;5953;52.372;9.918;2022-11-20T14:37:58;12.17;;;8.27;;
11791;SDS011;5953;52.372;9.918;2022-11-20T14:40:27;10.53;;;8.20;;
11791;SDS011;5953;52.372;9.918;2022-11-20T14:42:56;11.43;;;8.13;;
11791;SDS011;5953;52.372;9.918;2022-11-20T14:45:27;10.90;;;7.70;;
11791;SDS011;5953;52.372;9.918;2022-11-20T14:47:55;10.87;;;7.90;;
11791;SDS011;5953;52.372;9.918;2022-11-20T14:50:26;9.70;;;7.63;;
11791;SDS011;5953;52.372;9.918;2022-11-20T14:52:56;11.00;;;7.90;;
11791;SDS011;5953;52.372;9.918;2022-11-20T14:55:25;14.70;;;9.33;;
11791;SDS011;5953;52.372;9.918;2022-11-20T14:57:55;17.40;;;11.37;;
11791;SDS011;5953;52.372;9.918;2022-11-20T15:00:24;16.83;;;10.60;;
11791;SDS011;5953;52.372;9.918;2022-11-20T15:02:53;18.87;;;11.73;;
11791;SDS011;5953;52.372;9.918;2022-11-20T15:05:22;36.50;;;19.13;;
11791;SDS011;5953;52.372;9.918;2022-11-20T15:07:52;25.50;;;14.87;;
11791;SDS011;5953;52.372;9.918;2022-11-20T15:10:33;25.13;;;14.87;;
11791;SDS011;5953;52.372;9.918;2022-11-20T15:13:03;22.83;;;14.00;;
11791;SDS011;5953;52.372;9.918;2022-11-20T15:15:39;22.63;;;14.67;;
11791;SDS011;5953;52.372;9.918;2022-11-20T15:18:12;24.53;;;14.03;;
11791;SDS011;5953;52.372;9.918;2022-11-20T15:20:41;24.43;;;14.97;;
11791;SDS011;5953;52.372;9.918;2022-11-20T15:23:10;20.10;;;14.27;;
11791;SDS011;5953;52.372;9.918;2022-11-20T15:25:40;20.83;;;13.37;;
11791;SDS011;5953;52.372;9.918;2022-11-20T15:28:12;16.30;;;11.57;;
11791;SDS011;5953;52.372;9.918;2022-11-20T15:30:45;17.23;;;12.27;;
11791;SDS011;5953;52.372;9.918;2022-11-20T15:33:16;17.70;;;11.63;;
11791;SDS011;5953;52.372;9.918;2022-11-20T15:35:44;15.93;;;10.40;;
11791;SDS011;5953;52.372;9.918;2022-11-20T15:38:12;13.53;;;9.63;;